| time (UTC) | temp C | wind direction | speed KPH | gust KPH | rain 1hr cm | rain 24hr cm | rain mn cm | humidity % | barometer mb |
| 20260505173235 | 26 | 284 | 0.0 | 1.6 | 0.00 | 0.00 | 0.00 | 48 | 1018.9 |
| 20260505172732 | 25 | 179 | 4.8 | 4.8 | 0.00 | 0.00 | 0.00 | 49 | 1019.0 |
| 20260505172229 | 26 | 216 | 4.8 | 6.4 | 0.00 | 0.00 | 0.00 | 49 | 1018.9 |
| 20260505171729 | 26 | 262 | 3.2 | 4.8 | 0.00 | 0.00 | 0.00 | 52 | 1019.0 |
| 20260505171226 | 25 | 308 | 1.6 | 1.6 | 0.00 | 0.00 | 0.00 | 53 | 1018.9 |
| 20260505170723 | 26 | 282 | 1.6 | 1.6 | 0.00 | 0.00 | 0.00 | 53 | 1019.1 |
| 20260505170220 | 25 | 191 | 3.2 | 4.8 | 0.00 | 0.00 | 0.00 | 52 | 1019.1 |
| 20260505165715 | 25 | 270 | 4.8 | 9.7 | 0.00 | 0.00 | 0.00 | 53 | 1019.0 |
| 20260505165211 | 25 | 279 | 1.6 | 1.6 | 0.00 | 0.00 | 0.00 | 53 | 1019.1 |
| 20260505164707 | 25 | 275 | 0.0 | 1.6 | 0.00 | 0.00 | 0.00 | 54 | 1019.1 |
| 20260505164204 | 25 | 80 | 3.2 | 4.8 | 0.00 | 0.00 | 0.00 | 53 | 1019.3 |
| 20260505163702 | 25 | 248 | 3.2 | 3.2 | 0.00 | 0.00 | 0.00 | 54 | 1019.4 |
| 20260505163200 | 25 | 244 | 4.8 | 4.8 | 0.00 | 0.00 | 0.00 | 55 | 1019.5 |
| 20260505162658 | 25 | 235 | 3.2 | 4.8 | 0.00 | 0.00 | 0.00 | 53 | 1019.6 |
| 20260505162155 | 24 | 234 | 3.2 | 3.2 | 0.00 | 0.00 | 0.00 | 54 | 1019.8 |
| 20260505161651 | 25 | 191 | 4.8 | 6.4 | 0.00 | 0.00 | 0.00 | 54 | 1019.7 |
| 20260505161149 | 23 | 325 | 1.6 | 3.2 | 0.00 | 0.00 | 0.00 | 57 | 1019.8 |
| 20260505160647 | 24 | 299 | 3.2 | 4.8 | 0.00 | 0.00 | 0.00 | 55 | 1019.8 |
| 20260505160144 | 23 | 242 | 4.8 | 6.4 | 0.00 | 0.00 | 0.00 | 57 | 1019.9 |
| 20260505153123 | 24 | 168 | 1.6 | 3.2 | 0.00 | 0.00 | 0.00 | 57 | 1019.9 |
| 20260505152620 | 24 | 233 | 1.6 | 1.6 | 0.00 | 0.00 | 0.00 | 57 | 1019.9 |
| 20260505152115 | 23 | 235 | 3.2 | 3.2 | 0.00 | 0.00 | 0.00 | 59 | 1019.8 |
| 20260505151611 | 23 | 243 | 4.8 | 4.8 | 0.00 | 0.00 | 0.00 | 59 | 1019.9 |
| 20260505151109 | 23 | 305 | 1.6 | 1.6 | 0.00 | 0.00 | 0.00 | 60 | 1020.0 |
| 20260505150605 | 22 | 299 | 6.4 | 6.4 | 0.00 | 0.00 | 0.00 | 60 | 1020.0 |
| 20260505140530 | 22 | 249 | 3.2 | 3.2 | 0.00 | 0.00 | 0.00 | 66 | 1019.8 |
| 20260505124943 | 18 | 292 | 3.2 | 3.2 | 0.00 | 0.00 | 0.00 | 76 | 1020.4 |
| 20260505124440 | 18 | 128 | 3.2 | 3.2 | 0.00 | 0.00 | 0.00 | 75 | 1020.2 |
| 20260505123936 | 18 | 223 | 3.2 | 4.8 | 0.00 | 0.00 | 0.00 | 77 | 1020.1 |
| 20260505123433 | 17 | 261 | 3.2 | 4.8 | 0.00 | 0.00 | 0.00 | 78 | 1020.1 |
| 20260505122929 | 17 | 163 | 1.6 | 3.2 | 0.00 | 0.00 | 0.00 | 77 | 1020.1 |
| 20260505122427 | 17 | 93 | 0.0 | 1.6 | 0.00 | 0.00 | 0.00 | 78 | 1020.2 |
| 20260505121923 | 17 | 147 | 1.6 | 1.6 | 0.00 | 0.00 | 0.00 | 80 | 1020.3 |
| 20260505121420 | 17 | 263 | 1.6 | 1.6 | 0.00 | 0.00 | 0.00 | 79 | 1020.1 |
| 20260505120916 | 17 | 179 | 3.2 | 3.2 | 0.00 | 0.00 | 0.00 | 80 | 1020.2 |
| 20260505120412 | 16 | 254 | 1.6 | 1.6 | 0.00 | 0.00 | 0.00 | 79 | 1020.0 |
| 20260505115911 | 16 | 175 | 1.6 | 1.6 | 0.00 | 0.00 | 0.00 | 82 | 1019.9 |
| 20260505115408 | 16 | 204 | 1.6 | 1.6 | 0.00 | 0.00 | 0.00 | 82 | 1020.0 |
| 20260505114906 | 15 | 147 | 0.0 | 0.0 | 0.00 | 0.00 | 0.00 | 83 | 1020.0 |
| 20260505114402 | 15 | 163 | 3.2 | 3.2 | 0.00 | 0.00 | 0.00 | 84 | 1019.9 |
| 20260505113859 | 15 | 160 | 1.6 | 3.2 | 0.00 | 0.00 | 0.00 | 84 | 1019.8 |
| 20260505113355 | 14 | 153 | 1.6 | 1.6 | 0.00 | 0.00 | 0.00 | 85 | 1019.6 |
| 20260505112851 | 14 | 144 | 1.6 | 1.6 | 0.00 | 0.00 | 0.00 | 85 | 1019.7 |
| 20260505112349 | 13 | 154 | 1.6 | 1.6 | 0.00 | 0.00 | 0.00 | 86 | 1019.8 |
| 20260505111845 | 13 | 160 | 1.6 | 3.2 | 0.00 | 0.00 | 0.00 | 86 | 1019.7 |
| 20260505111340 | 13 | 133 | 0.0 | 1.6 | 0.00 | 0.00 | 0.00 | 87 | 1019.6 |
| 20260505110836 | 13 | 152 | 0.0 | 1.6 | 0.00 | 0.00 | 0.00 | 88 | 1019.5 |
| 20260505110334 | 12 | 160 | 1.6 | 1.6 | 0.00 | 0.00 | 0.00 | 89 | 1019.6 |
| 20260505101809 | 10 | 255 | 0.0 | 0.0 | 0.00 | 0.00 | 0.00 | 95 | 1019.0 |
| 20260505101304 | 10 | 255 | 0.0 | 0.0 | 0.00 | 0.00 | 0.00 | 95 | 1018.9 |
| 20260505100800 | 11 | 255 | 0.0 | 0.0 | 0.00 | 0.00 | 0.00 | 94 | 1018.8 |
| 20260505100257 | 10 | 255 | 0.0 | 0.0 | 0.00 | 0.00 | 0.00 | 94 | 1018.7 |
| 20260505095753 | 10 | 255 | 0.0 | 0.0 | 0.00 | 0.00 | 0.00 | 94 | 1018.8 |
| 20260505095251 | 10 | 255 | 0.0 | 0.0 | 0.00 | 0.00 | 0.00 | 94 | 1018.6 |
| 20260505094746 | 11 | 255 | 0.0 | 0.0 | 0.00 | 0.00 | 0.00 | 93 | 1018.5 |
| 20260505094243 | 11 | 255 | 0.0 | 0.0 | 0.00 | 0.00 | 0.00 | 93 | 1018.7 |
| 20260505093739 | 11 | 255 | 0.0 | 0.0 | 0.00 | 0.00 | 0.00 | 93 | 1018.6 |
| 20260505093237 | 11 | 255 | 0.0 | 0.0 | 0.00 | 0.00 | 0.00 | 92 | 1018.5 |
| 20260505092733 | 11 | 255 | 0.0 | 0.0 | 0.00 | 0.00 | 0.00 | 91 | 1018.6 |
| 20260505092232 | 11 | 255 | 0.0 | 0.0 | 0.00 | 0.00 | 0.00 | 91 | 1018.5 |
| 20260505091729 | 11 | 255 | 0.0 | 0.0 | 0.00 | 0.00 | 0.00 | 91 | 1018.5 |
| 20260505091227 | 11 | 255 | 0.0 | 0.0 | 0.00 | 0.00 | 0.00 | 91 | 1018.4 |
| 20260505090724 | 12 | 255 | 0.0 | 0.0 | 0.00 | 0.00 | 0.00 | 90 | 1018.4 |
| 20260505090222 | 12 | 255 | 0.0 | 0.0 | 0.00 | 0.00 | 0.00 | 90 | 1018.4 |
| 20260505085719 | 12 | 255 | 0.0 | 0.0 | 0.00 | 0.00 | 0.00 | 90 | 1018.4 |
| 20260505085218 | 12 | 256 | 0.0 | 0.0 | 0.00 | 0.00 | 0.00 | 90 | 1018.3 |
| 20260505084714 | 12 | 256 | 0.0 | 0.0 | 0.00 | 0.00 | 0.00 | 89 | 1018.4 |
| 20260505084214 | 12 | 266 | 0.0 | 0.0 | 0.00 | 0.00 | 0.00 | 89 | 1018.0 |
| 20260505083710 | 12 | 266 | 0.0 | 0.0 | 0.00 | 0.00 | 0.00 | 88 | 1018.1 |
| 20260505083207 | 12 | 266 | 0.0 | 0.0 | 0.00 | 0.00 | 0.00 | 87 | 1018.1 |
| 20260505082702 | 12 | 266 | 0.0 | 0.0 | 0.00 | 0.00 | 0.00 | 86 | 1018.1 |
| 20260505082200 | 12 | 266 | 0.0 | 0.0 | 0.00 | 0.00 | 0.00 | 86 | 1018.2 |
| 20260505081655 | 12 | 266 | 0.0 | 0.0 | 0.00 | 0.00 | 0.00 | 86 | 1018.0 |
| 20260505081153 | 12 | 265 | 0.0 | 0.0 | 0.00 | 0.00 | 0.00 | 86 | 1018.1 |
| 20260505080650 | 12 | 267 | 0.0 | 0.0 | 0.00 | 0.00 | 0.00 | 85 | 1018.1 |
| 20260505080146 | 13 | 267 | 0.0 | 0.0 | 0.00 | 0.00 | 0.00 | 85 | 1018.0 |
| 20260505075642 | 13 | 267 | 0.0 | 0.0 | 0.00 | 0.00 | 0.00 | 85 | 1017.9 |
| 20260505075139 | 13 | 267 | 0.0 | 0.0 | 0.00 | 0.00 | 0.00 | 84 | 1018.0 |
| 20260505074636 | 13 | 267 | 0.0 | 0.0 | 0.00 | 0.00 | 0.00 | 84 | 1018.1 |
| 20260505074133 | 13 | 267 | 0.0 | 0.0 | 0.00 | 0.00 | 0.00 | 83 | 1017.7 |
| 20260505073631 | 13 | 268 | 0.0 | 0.0 | 0.00 | 0.00 | 0.00 | 83 | 1018.1 |
| 20260505073129 | 13 | 263 | 0.0 | 0.0 | 0.00 | 0.00 | 0.00 | 83 | 1018.0 |
| 20260505072624 | 13 | 255 | 0.0 | 0.0 | 0.00 | 0.00 | 0.00 | 83 | 1018.1 |
| 20260505072121 | 13 | 255 | 0.0 | 0.0 | 0.00 | 0.00 | 0.00 | 82 | 1017.9 |
| 20260505071616 | 13 | 256 | 0.0 | 0.0 | 0.00 | 0.00 | 0.00 | 82 | 1017.9 |
| 20260505071115 | 13 | 256 | 0.0 | 0.0 | 0.00 | 0.00 | 0.00 | 81 | 1017.9 |
| 20260505070612 | 13 | 260 | 0.0 | 0.0 | 0.00 | 0.00 | 0.00 | 81 | 1017.9 |
| 20260505070108 | 13 | 261 | 0.0 | 0.0 | 0.00 | 0.00 | 0.00 | 81 | 1017.8 |
| 20260505065604 | 13 | 291 | 0.0 | 0.0 | 0.00 | 0.00 | 0.00 | 80 | 1017.7 |
| 20260505065100 | 13 | 276 | 0.0 | 0.0 | 0.00 | 0.00 | 0.00 | 80 | 1017.7 |
| 20260505064557 | 13 | 250 | 0.0 | 1.6 | 0.00 | 0.00 | 0.00 | 80 | 1017.7 |
| 20260505064056 | 13 | 118 | 0.0 | 0.0 | 0.00 | 0.00 | 0.00 | 80 | 1017.9 |
| 20260505063553 | 14 | 243 | 0.0 | 0.0 | 0.00 | 0.00 | 0.00 | 79 | 1017.7 |
| 20260505063048 | 14 | 239 | 0.0 | 0.0 | 0.00 | 0.00 | 0.00 | 79 | 1018.0 |
| 20260505062545 | 14 | 241 | 0.0 | 0.0 | 0.00 | 0.00 | 0.00 | 78 | 1018.1 |
| 20260505062042 | 14 | 249 | 0.0 | 0.0 | 0.00 | 0.00 | 0.00 | 78 | 1017.9 |
| 20260505061540 | 15 | 249 | 1.6 | 1.6 | 0.00 | 0.00 | 0.00 | 77 | 1017.9 |
| 20260505061038 | 15 | 249 | 1.6 | 1.6 | 0.00 | 0.00 | 0.00 | 77 | 1017.9 |
| 20260505060535 | 15 | 232 | 0.0 | 0.0 | 0.00 | 0.00 | 0.00 | 77 | 1018.1 |
| 20260505060031 | 15 | 273 | 0.0 | 0.0 | 0.00 | 0.00 | 0.00 | 77 | 1018.0 |
| 20260505055527 | 15 | 269 | 0.0 | 0.0 | 0.00 | 0.00 | 0.00 | 77 | 1018.1 |
| 20260505055024 | 15 | 295 | 0.0 | 0.0 | 0.00 | 0.00 | 0.00 | 76 | 1018.0 |
| 20260505054521 | 15 | 284 | 0.0 | 1.6 | 0.00 | 0.00 | 0.00 | 76 | 1018.3 |
| 20260505054019 | 15 | 185 | 0.0 | 0.0 | 0.00 | 0.00 | 0.00 | 76 | 1018.2 |
| 20260505053516 | 15 | 197 | 0.0 | 0.0 | 0.00 | 0.00 | 0.00 | 76 | 1018.0 |
| 20260505053013 | 15 | 288 | 0.0 | 0.0 | 0.00 | 0.00 | 0.00 | 76 | 1018.4 |
| 20260505052510 | 15 | 214 | 1.6 | 1.6 | 0.00 | 0.00 | 0.00 | 76 | 1018.3 |
| 20260505052007 | 15 | 255 | 0.0 | 0.0 | 0.00 | 0.00 | 0.00 | 75 | 1018.3 |
| 20260505051504 | 15 | 255 | 0.0 | 0.0 | 0.00 | 0.00 | 0.00 | 75 | 1018.4 |
| 20260505051002 | 15 | 259 | 0.0 | 0.0 | 0.00 | 0.00 | 0.00 | 74 | 1018.5 |
| 20260505050500 | 15 | 298 | 0.0 | 0.0 | 0.00 | 0.00 | 0.00 | 74 | 1018.4 |
| 20260505041427 | 16 | 170 | 1.6 | 1.6 | 0.00 | 0.00 | 0.00 | 71 | 1018.2 |
| 20260505040924 | 16 | 163 | 4.8 | 6.4 | 0.00 | 0.00 | 0.00 | 71 | 1018.3 |
| 20260505040422 | 16 | 199 | 0.0 | 0.0 | 0.00 | 0.00 | 0.00 | 71 | 1018.3 |
| 20260505035918 | 16 | 138 | 3.2 | 3.2 | 0.00 | 0.00 | 0.00 | 70 | 1018.4 |
| 20260505035415 | 16 | 272 | 1.6 | 3.2 | 0.00 | 0.00 | 0.00 | 71 | 1018.1 |
| 20260505034912 | 16 | 306 | 1.6 | 4.8 | 0.00 | 0.00 | 0.00 | 70 | 1018.2 |
| 20260505034408 | 16 | 167 | 3.2 | 4.8 | 0.00 | 0.00 | 0.00 | 70 | 1018.3 |
| 20260505033906 | 16 | 66 | 0.0 | 1.6 | 0.00 | 0.00 | 0.00 | 70 | 1018.2 |
| 20260505033402 | 16 | 266 | 1.6 | 3.2 | 0.00 | 0.00 | 0.00 | 70 | 1018.1 |
| 20260505032901 | 16 | 232 | 1.6 | 1.6 | 0.00 | 0.00 | 0.00 | 70 | 1018.2 |
| 20260505032357 | 17 | 155 | 3.2 | 4.8 | 0.00 | 0.00 | 0.00 | 70 | 1018.3 |
| 20260505031854 | 17 | 229 | 3.2 | 3.2 | 0.00 | 0.00 | 0.00 | 69 | 1018.3 |
| 20260505031351 | 17 | 176 | 0.0 | 1.6 | 0.00 | 0.00 | 0.00 | 69 | 1018.2 |
| 20260505030848 | 17 | 260 | 1.6 | 3.2 | 0.00 | 0.00 | 0.00 | 69 | 1018.3 |
| 20260505030343 | 17 | 167 | 3.2 | 3.2 | 0.00 | 0.00 | 0.00 | 69 | 1018.2 |
| 20260505025839 | 17 | 280 | 1.6 | 1.6 | 0.00 | 0.00 | 0.00 | 69 | 1018.4 |
| 20260505025337 | 17 | 177 | 3.2 | 3.2 | 0.00 | 0.00 | 0.00 | 69 | 1018.2 |
| 20260505024836 | 17 | 177 | 3.2 | 4.8 | 0.00 | 0.00 | 0.00 | 69 | 1018.5 |
| 20260505024333 | 17 | 216 | 1.6 | 1.6 | 0.00 | 0.00 | 0.00 | 69 | 1018.3 |
| 20260505023830 | 17 | 168 | 1.6 | 3.2 | 0.00 | 0.00 | 0.00 | 69 | 1018.4 |
| 20260505023326 | 17 | 231 | 0.0 | 1.6 | 0.00 | 0.00 | 0.00 | 69 | 1018.4 |
| 20260505022824 | 17 | 153 | 1.6 | 3.2 | 0.00 | 0.00 | 0.00 | 69 | 1018.3 |
| 20260505022321 | 17 | 228 | 1.6 | 3.2 | 0.00 | 0.00 | 0.00 | 69 | 1018.3 |
| 20260505021818 | 17 | 185 | 1.6 | 1.6 | 0.00 | 0.00 | 0.00 | 68 | 1018.2 |
| 20260505021315 | 17 | 206 | 3.2 | 3.2 | 0.00 | 0.00 | 0.00 | 68 | 1018.1 |
| 20260505020810 | 17 | 163 | 1.6 | 3.2 | 0.00 | 0.00 | 0.00 | 68 | 1018.2 |
| 20260505020306 | 17 | 97 | 3.2 | 3.2 | 0.00 | 0.00 | 0.00 | 68 | 1018.0 |
| 20260505015803 | 18 | 284 | 1.6 | 3.2 | 0.00 | 0.00 | 0.00 | 67 | 1018.1 |
| 20260505015300 | 18 | 154 | 3.2 | 4.8 | 0.00 | 0.00 | 0.00 | 67 | 1018.2 |
| 20260505014758 | 18 | 340 | 3.2 | 4.8 | 0.00 | 0.00 | 0.00 | 67 | 1017.9 |
| 20260505014255 | 18 | 232 | 3.2 | 4.8 | 0.00 | 0.00 | 0.00 | 66 | 1017.9 |
| 20260505013751 | 18 | 276 | 3.2 | 3.2 | 0.00 | 0.00 | 0.00 | 66 | 1018.0 |
| 20260505013248 | 18 | 175 | 3.2 | 3.2 | 0.00 | 0.00 | 0.00 | 66 | 1017.9 |
| 20260505012746 | 18 | 148 | 3.2 | 4.8 | 0.00 | 0.00 | 0.00 | 65 | 1017.9 |
| 20260505012243 | 18 | 210 | 3.2 | 3.2 | 0.00 | 0.00 | 0.00 | 65 | 1017.8 |
| 20260505011739 | 18 | 240 | 1.6 | 3.2 | 0.00 | 0.00 | 0.00 | 65 | 1017.8 |
| 20260505011236 | 18 | 304 | 1.6 | 1.6 | 0.00 | 0.00 | 0.00 | 65 | 1017.6 |
| 20260505010732 | 18 | 252 | 3.2 | 3.2 | 0.00 | 0.00 | 0.00 | 64 | 1017.5 |
| 20260505010228 | 18 | 133 | 3.2 | 3.2 | 0.00 | 0.00 | 0.00 | 63 | 1017.5 |
| 20260505005725 | 18 | 235 | 1.6 | 1.6 | 0.00 | 0.00 | 0.00 | 63 | 1017.5 |
| 20260505005222 | 19 | 176 | 1.6 | 3.2 | 0.00 | 0.00 | 0.00 | 63 | 1017.2 |
| 20260505004719 | 19 | 170 | 1.6 | 3.2 | 0.00 | 0.00 | 0.00 | 62 | 1017.4 |
| 20260505004215 | 19 | 238 | 3.2 | 4.8 | 0.00 | 0.00 | 0.00 | 62 | 1017.2 |
| 20260505003713 | 19 | 122 | 4.8 | 6.4 | 0.00 | 0.00 | 0.00 | 61 | 1017.1 |
| 20260505003211 | 19 | 202 | 6.4 | 9.7 | 0.00 | 0.00 | 0.00 | 61 | 1017.0 |
| 20260505002707 | 20 | 180 | 3.2 | 3.2 | 0.00 | 0.00 | 0.00 | 60 | 1017.0 |
| 20260505002204 | 20 | 161 | 4.8 | 4.8 | 0.00 | 0.00 | 0.00 | 59 | 1016.8 |
| 20260505001701 | 20 | 164 | 3.2 | 6.4 | 0.00 | 0.00 | 0.00 | 59 | 1016.9 |
| 20260505001159 | 20 | 166 | 4.8 | 6.4 | 0.00 | 0.00 | 0.00 | 58 | 1016.8 |
| 20260505000656 | 20 | 224 | 3.2 | 3.2 | 0.00 | 0.00 | 0.00 | 58 | 1016.7 |
| 20260505000154 | 20 | 133 | 1.6 | 3.2 | 0.00 | 0.00 | 0.00 | 57 | 1016.5 |
| 20260504235649 | 20 | 153 | 3.2 | 3.2 | 0.00 | 0.00 | 0.00 | 57 | 1016.7 |
| 20260504235146 | 20 | 211 | 3.2 | 3.2 | 0.00 | 0.00 | 0.00 | 57 | 1016.5 |
| 20260504234644 | 20 | 298 | 3.2 | 4.8 | 0.00 | 0.00 | 0.00 | 57 | 1016.5 |
| 20260504234141 | 21 | 232 | 4.8 | 4.8 | 0.00 | 0.00 | 0.00 | 57 | 1016.4 |
| 20260504233636 | 21 | 150 | 3.2 | 4.8 | 0.00 | 0.00 | 0.00 | 56 | 1016.6 |
| 20260504233132 | 21 | 173 | 3.2 | 6.4 | 0.00 | 0.00 | 0.00 | 56 | 1016.4 |
| 20260504232631 | 21 | 184 | 3.2 | 4.8 | 0.00 | 0.00 | 0.00 | 56 | 1016.3 |
| 20260504232127 | 21 | 153 | 6.4 | 11.3 | 0.00 | 0.00 | 0.00 | 56 | 1016.3 |
| 20260504231624 | 21 | 144 | 1.6 | 3.2 | 0.00 | 0.00 | 0.00 | 57 | 1016.3 |
| 20260504231120 | 22 | 166 | 3.2 | 4.8 | 0.00 | 0.00 | 0.00 | 56 | 1016.1 |
| 20260504230616 | 22 | 189 | 3.2 | 4.8 | 0.00 | 0.00 | 0.00 | 56 | 1016.3 |
| 20260504230115 | 22 | 154 | 1.6 | 1.6 | 0.00 | 0.00 | 0.00 | 56 | 1016.0 |
| 20260504225613 | 22 | 175 | 1.6 | 1.6 | 0.00 | 0.00 | 0.00 | 56 | 1016.2 |
| 20260504225109 | 22 | 59 | 3.2 | 9.7 | 0.00 | 0.00 | 0.00 | 55 | 1016.0 |
| 20260504224606 | 22 | 152 | 9.7 | 14.5 | 0.00 | 0.00 | 0.00 | 55 | 1016.0 |
| 20260504224103 | 22 | 217 | 1.6 | 1.6 | 0.00 | 0.00 | 0.00 | 55 | 1016.1 |
| 20260504223600 | 23 | 224 | 6.4 | 6.4 | 0.00 | 0.00 | 0.00 | 54 | 1015.8 |
| 20260504223055 | 23 | 286 | 4.8 | 6.4 | 0.00 | 0.00 | 0.00 | 54 | 1015.7 |
| 20260504222553 | 23 | 251 | 8.0 | 14.5 | 0.00 | 0.00 | 0.00 | 54 | 1016.0 |
| 20260504222050 | 23 | 207 | 3.2 | 4.8 | 0.00 | 0.00 | 0.00 | 54 | 1015.9 |
| 20260504221547 | 23 | 159 | 3.2 | 6.4 | 0.00 | 0.00 | 0.00 | 53 | 1015.8 |
| 20260504221044 | 23 | 216 | 3.2 | 4.8 | 0.00 | 0.00 | 0.00 | 54 | 1016.1 |
| 20260504220540 | 23 | 184 | 4.8 | 9.7 | 0.00 | 0.00 | 0.00 | 54 | 1015.9 |
| 20260504220037 | 23 | 232 | 3.2 | 4.8 | 0.00 | 0.00 | 0.00 | 53 | 1016.0 |
| 20260504215534 | 23 | 259 | 3.2 | 4.8 | 0.00 | 0.00 | 0.00 | 53 | 1016.0 |
| 20260504215031 | 23 | 202 | 6.4 | 9.7 | 0.00 | 0.00 | 0.00 | 53 | 1015.9 |
| 20260504214527 | 24 | 130 | 3.2 | 4.8 | 0.00 | 0.00 | 0.00 | 53 | 1015.8 |
| 20260504214024 | 25 | 172 | 3.2 | 3.2 | 0.00 | 0.00 | 0.00 | 50 | 1015.9 |
| 20260504213521 | 25 | 182 | 6.4 | 9.7 | 0.00 | 0.00 | 0.00 | 38 | 1015.7 |
| 20260504213018 | 25 | 262 | 1.6 | 3.2 | 0.00 | 0.00 | 0.00 | 38 | 1015.9 |
| 20260504212513 | 25 | 234 | 3.2 | 4.8 | 0.00 | 0.00 | 0.00 | 37 | 1015.7 |
| 20260504212011 | 25 | 242 | 6.4 | 9.7 | 0.00 | 0.00 | 0.00 | 37 | 1015.7 |
| 20260504211508 | 25 | 293 | 1.6 | 3.2 | 0.00 | 0.00 | 0.00 | 36 | 1015.7 |
| 20260504211005 | 25 | 260 | 4.8 | 6.4 | 0.00 | 0.00 | 0.00 | 37 | 1015.7 |
| 20260504210502 | 25 | 161 | 3.2 | 4.8 | 0.00 | 0.00 | 0.00 | 37 | 1015.8 |
| 20260504205958 | 25 | 229 | 6.4 | 12.9 | 0.00 | 0.00 | 0.00 | 36 | 1015.8 |
| 20260504205456 | 25 | 65 | 3.2 | 4.8 | 0.00 | 0.00 | 0.00 | 37 | 1015.8 |
| 20260504204954 | 25 | 296 | 3.2 | 3.2 | 0.00 | 0.00 | 0.00 | 38 | 1015.9 |
| 20260504204452 | 25 | 161 | 3.2 | 4.8 | 0.00 | 0.00 | 0.00 | 38 | 1015.8 |
| 20260504203951 | 25 | 325 | 1.6 | 1.6 | 0.00 | 0.00 | 0.00 | 38 | 1016.0 |
| 20260504203448 | 25 | 169 | 8.0 | 9.7 | 0.00 | 0.00 | 0.00 | 37 | 1015.8 |
| 20260504202944 | 25 | 229 | 11.3 | 12.9 | 0.00 | 0.00 | 0.00 | 35 | 1015.9 |
| 20260504202441 | 25 | 244 | 1.6 | 3.2 | 0.00 | 0.00 | 0.00 | 36 | 1016.2 |
| 20260504201937 | 25 | 259 | 3.2 | 3.2 | 0.00 | 0.00 | 0.00 | 36 | 1015.9 |
| 20260504201435 | 25 | 299 | 0.0 | 1.6 | 0.00 | 0.00 | 0.00 | 39 | 1016.1 |
| 20260504200932 | 25 | 216 | 3.2 | 3.2 | 0.00 | 0.00 | 0.00 | 37 | 1016.2 |
| 20260504200429 | 25 | 242 | 3.2 | 4.8 | 0.00 | 0.00 | 0.00 | 36 | 1016.1 |
| 20260504195926 | 25 | 208 | 3.2 | 4.8 | 0.00 | 0.00 | 0.00 | 37 | 1016.3 |
| 20260504195421 | 25 | 165 | 3.2 | 4.8 | 0.00 | 0.00 | 0.00 | 39 | 1016.3 |
| 20260504194918 | 25 | 227 | 1.6 | 3.2 | 0.00 | 0.00 | 0.00 | 38 | 1016.3 |
| 20260504194414 | 25 | 237 | 6.4 | 9.7 | 0.00 | 0.00 | 0.00 | 37 | 1016.6 |
| 20260504193910 | 25 | 277 | 4.8 | 4.8 | 0.00 | 0.00 | 0.00 | 39 | 1016.5 |
| 20260504193408 | 25 | 245 | 3.2 | 3.2 | 0.00 | 0.00 | 0.00 | 40 | 1016.7 |
| 20260504192906 | 25 | 245 | 3.2 | 3.2 | 0.00 | 0.00 | 0.00 | 37 | 1016.7 |
| 20260504192403 | 25 | 249 | 4.8 | 4.8 | 0.00 | 0.00 | 0.00 | 37 | 1016.6 |
| 20260504191902 | 25 | 249 | 6.4 | 9.7 | 0.00 | 0.00 | 0.00 | 39 | 1016.7 |
| 20260504191400 | 25 | 287 | 3.2 | 3.2 | 0.00 | 0.00 | 0.00 | 38 | 1016.7 |
| 20260504190855 | 25 | 201 | 1.6 | 1.6 | 0.00 | 0.00 | 0.00 | 37 | 1016.6 |
| 20260504190351 | 25 | 276 | 3.2 | 4.8 | 0.00 | 0.00 | 0.00 | 38 | 1016.8 |
| 20260504185848 | 25 | 278 | 3.2 | 3.2 | 0.00 | 0.00 | 0.00 | 38 | 1017.1 |
| 20260504185345 | 25 | 167 | 6.4 | 11.3 | 0.00 | 0.00 | 0.00 | 38 | 1017.0 |
| 20260504184841 | 25 | 304 | 3.2 | 3.2 | 0.00 | 0.00 | 0.00 | 36 | 1017.2 |
| 20260504184337 | 25 | 326 | 3.2 | 4.8 | 0.00 | 0.00 | 0.00 | 37 | 1017.1 |
| 20260504183832 | 25 | 252 | 3.2 | 4.8 | 0.00 | 0.00 | 0.00 | 39 | 1017.1 |
| 20260504183330 | 25 | 229 | 4.8 | 6.4 | 0.00 | 0.00 | 0.00 | 38 | 1017.1 |
| 20260504182828 | 24 | 156 | 3.2 | 6.4 | 0.00 | 0.00 | 0.00 | 39 | 1017.2 |
| 20260504182325 | 24 | 153 | 3.2 | 4.8 | 0.00 | 0.00 | 0.00 | 40 | 1017.4 |
| 20260504181822 | 25 | 227 | 1.6 | 3.2 | 0.00 | 0.00 | 0.00 | 39 | 1017.5 |
| 20260504181319 | 24 | 173 | 3.2 | 4.8 | 0.00 | 0.00 | 0.00 | 42 | 1017.5 |
| 20260504180818 | 25 | 228 | 3.2 | 11.3 | 0.00 | 0.00 | 0.00 | 39 | 1017.4 |
| 20260504180316 | 24 | 269 | 4.8 | 4.8 | 0.00 | 0.00 | 0.00 | 40 | 1017.5 |
| 20260504175814 | 24 | 314 | 0.0 | 1.6 | 0.00 | 0.00 | 0.00 | 40 | 1017.7 |
| 20260504175310 | 24 | 139 | 1.6 | 1.6 | 0.00 | 0.00 | 0.00 | 43 | 1017.6 |
| 20260504174809 | 25 | 241 | 6.4 | 9.7 | 0.00 | 0.00 | 0.00 | 38 | 1017.8 |
| 20260504174306 | 24 | 289 | 1.6 | 1.6 | 0.00 | 0.00 | 0.00 | 42 | 1017.8 |
| 20260504173802 | 23 | 285 | 6.4 | 9.7 | 0.00 | 0.00 | 0.00 | 41 | 1017.7 |